Time;durP1;ratioP1;P1;durP2;ratioP2;P2;SDS_P1;SDS_P2;PMS_P1;PMS_P2;Temp;Humidity;BMP_temperature;BMP_pressure;BME280_temperature;BME280_humidity;BME280_pressure;Samples;Min_cycle;Max_cycle;Signal;HPM_P1;HPM_P2
2021/06/25 00:02:16;;;;;;;1.95;0.50;;;;;;;15.08;85.14;97062.91;4976291;28;20710;-64
2021/06/25 00:04:42;;;;;;;1.08;0.50;;;;;;;15.04;85.14;97064.88;4980084;28;20042;-62
2021/06/25 00:07:07;;;;;;;0.93;0.60;;;;;;;15.03;85.80;97063.28;4976886;28;20590;-63
2021/06/25 00:09:33;;;;;;;0.70;0.60;;;;;;;15.13;85.42;97063.75;4979842;28;20049;-63
2021/06/25 00:11:58;;;;;;;0.80;0.50;;;;;;;15.22;85.40;97064.94;4984163;28;20038;-64
2021/06/25 00:14:24;;;;;;;0.68;0.50;;;;;;;15.17;85.28;97059.81;4976261;28;20958;-64
2021/06/25 00:16:50;;;;;;;4.00;0.70;;;;;;;15.12;85.36;97056.63;4981534;28;20047;-64
2021/06/25 00:19:17;;;;;;;1.60;0.60;;;;;;;15.09;85.83;97056.22;4959230;28;20047;-65
2021/06/25 00:21:42;;;;;;;1.92;0.60;;;;;;;15.16;85.30;97049.97;4981391;28;20399;-64
2021/06/25 00:24:08;;;;;;;1.17;0.80;;;;;;;15.16;86.12;97052.72;4976070;28;20068;-65
2021/06/25 00:26:34;;;;;;;1.20;0.60;;;;;;;15.16;85.98;97054.66;4984579;28;20157;-65
2021/06/25 00:28:59;;;;;;;0.82;0.45;;;;;;;15.15;85.91;97045.59;4967038;28;20110;-65
2021/06/25 00:31:24;;;;;;;0.80;0.60;;;;;;;15.09;86.22;97049.94;5003694;28;20050;-65
2021/06/25 00:33:50;;;;;;;2.75;0.73;;;;;;;15.14;85.72;97048.75;5009199;28;20056;-65
2021/06/25 00:36:15;;;;;;;1.00;0.80;;;;;;;15.23;84.44;97054.69;4996588;28;20073;-65
2021/06/25 00:38:40;;;;;;;2.03;0.60;;;;;;;15.14;84.98;97051.50;4997042;28;20046;-65
2021/06/25 00:41:06;;;;;;;0.93;0.60;;;;;;;15.01;85.81;97051.06;4977059;28;20062;-66
2021/06/25 00:43:31;;;;;;;1.50;0.60;;;;;;;14.97;86.62;97055.78;4981554;28;20042;-65
2021/06/25 00:45:57;;;;;;;1.38;0.60;;;;;;;15.13;86.03;97059.00;4978594;28;20078;-65
2021/06/25 00:48:22;;;;;;;1.83;1.13;;;;;;;15.21;84.90;97057.06;4976820;28;20046;-65
2021/06/25 00:50:48;;;;;;;0.82;0.52;;;;;;;15.23;84.49;97066.53;4981488;28;20050;-64
2021/06/25 00:53:13;;;;;;;1.88;0.90;;;;;;;15.15;85.06;97055.88;4978192;28;20045;-65
2021/06/25 00:55:42;;;;;;;2.40;0.90;;;;;;;15.43;83.04;97067.00;4963762;28;20072;-65
2021/06/25 00:58:16;;;;;;;2.17;0.98;;;;;;;15.31;84.53;97067.34;4957678;28;20037;-63
2021/06/25 01:00:43;;;;;;;1.80;0.95;;;;;;;15.33;83.93;97062.22;4979940;28;20042;-64
2021/06/25 01:03:09;;;;;;;2.55;1.00;;;;;;;15.28;84.38;97065.34;4975629;28;20544;-63
2021/06/25 01:05:35;;;;;;;1.33;0.88;;;;;;;15.17;85.12;97057.03;4964378;28;20046;-64
2021/06/25 01:08:01;;;;;;;1.98;1.08;;;;;;;15.21;84.41;97065.34;4981617;28;20034;-66
2021/06/25 01:10:27;;;;;;;3.22;1.00;;;;;;;15.15;85.22;97059.41;4977745;28;20050;-66
2021/06/25 01:12:52;;;;;;;3.92;1.33;;;;;;;15.18;84.69;97055.06;4985771;28;20038;-64
2021/06/25 01:15:18;;;;;;;3.00;1.52;;;;;;;15.16;84.63;97062.94;4971537;28;20058;-62
2021/06/25 01:17:45;;;;;;;2.17;1.30;;;;;;;15.00;85.27;97061.31;4981743;28;20077;-63
2021/06/25 01:20:23;;;;;;;3.33;1.90;;;;;;;15.10;85.61;97068.81;4974669;28;20495;-63
2021/06/25 01:22:48;;;;;;;3.42;1.77;;;;;;;15.01;85.58;97064.84;4979775;28;20049;-64
2021/06/25 01:25:18;;;;;;;4.25;1.50;;;;;;;15.17;85.11;97064.53;4970929;28;20038;-63
2021/06/25 01:27:45;;;;;;;2.22;1.40;;;;;;;15.18;85.00;97063.34;4979976;28;20738;-63
2021/06/25 01:30:15;;;;;;;2.88;1.60;;;;;;;15.20;85.00;97056.28;4976649;28;20054;-64
2021/06/25 01:32:41;;;;;;;4.25;1.60;;;;;;;15.00;85.52;97057.75;4981166;28;20046;-63
2021/06/25 01:35:08;;;;;;;3.20;2.03;;;;;;;14.87;86.03;97054.53;4976325;28;20046;-65
2021/06/25 01:37:34;;;;;;;4.47;1.67;;;;;;;14.86;86.17;97056.50;4980867;28;20130;-63
2021/06/25 01:39:59;;;;;;;3.08;2.13;;;;;;;14.84;86.16;97053.34;4983123;28;20051;-65
2021/06/25 01:42:25;;;;;;;4.93;2.15;;;;;;;14.93;85.95;97055.75;4977062;28;20104;-65
2021/06/25 01:44:52;;;;;;;4.03;2.17;;;;;;;14.99;85.78;97059.72;4982656;28;20133;-64
2021/06/25 01:47:18;;;;;;;4.85;2.08;;;;;;;14.98;85.97;97049.88;4976031;28;20031;-64
2021/06/25 01:49:44;;;;;;;3.95;2.08;;;;;;;14.97;85.98;97055.78;4978605;28;20054;-63
2021/06/25 01:52:17;;;;;;;3.05;2.20;;;;;;;14.94;85.73;97048.28;4973307;28;20138;-64
2021/06/25 01:54:44;;;;;;;3.67;1.85;;;;;;;14.83;86.37;97042.69;4980624;28;20395;-64
2021/06/25 01:57:09;;;;;;;3.83;2.20;;;;;;;14.91;85.61;97045.13;4974968;28;20038;-63
2021/06/25 01:59:34;;;;;;;2.70;1.70;;;;;;;14.86;86.36;97039.97;4978910;28;20054;-64
2021/06/25 02:02:00;;;;;;;5.03;2.33;;;;;;;14.66;86.09;97049.72;4980877;28;20039;-64
2021/06/25 02:04:25;;;;;;;3.38;2.20;;;;;;;14.66;86.08;97044.97;4974150;28;20049;-64
2021/06/25 02:06:50;;;;;;;4.90;2.75;;;;;;;14.70;86.69;97043.03;4979812;28;20042;-64
2021/06/25 02:09:16;;;;;;;4.40;2.83;;;;;;;14.58;86.63;97043.34;4967856;28;20478;-64
2021/06/25 02:11:41;;;;;;;7.85;2.75;;;;;;;14.65;86.08;97034.34;4982441;28;20042;-65
2021/06/25 02:14:07;;;;;;;4.35;2.90;;;;;;;14.47;86.82;97032.22;4978076;28;20038;-64
2021/06/25 02:16:32;;;;;;;7.30;3.15;;;;;;;14.38;86.94;97037.28;4986823;28;20049;-63
2021/06/25 02:18:58;;;;;;;5.95;3.33;;;;;;;14.41;86.74;97036.53;5003810;28;20053;-64
2021/06/25 02:21:23;;;;;;;5.03;3.20;;;;;;;14.41;87.40;97035.75;5004941;28;20046;-64
2021/06/25 02:23:49;;;;;;;5.70;3.55;;;;;;;14.49;86.60;97031.84;5020080;28;20045;-64
2021/06/25 02:26:14;;;;;;;6.20;3.65;;;;;;;14.39;87.27;97030.63;4994591;28;20125;-64
2021/06/25 02:28:40;;;;;;;5.50;3.63;;;;;;;14.45;87.17;97034.56;5005628;28;20042;-63
2021/06/25 02:31:05;;;;;;;5.68;3.55;;;;;;;14.47;86.80;97031.44;4999571;28;20053;-64
2021/06/25 02:33:31;;;;;;;5.45;3.65;;;;;;;14.40;87.49;97034.94;5004020;28;20127;-64
2021/06/25 02:35:56;;;;;;;5.57;3.30;;;;;;;14.45;87.44;97036.56;5004197;28;20038;-64
2021/06/25 02:38:21;;;;;;;10.43;3.60;;;;;;;14.49;87.36;97035.38;4999072;28;20057;-63
2021/06/25 02:40:47;;;;;;;6.20;3.95;;;;;;;14.55;87.22;97030.31;5003862;28;20435;-63
2021/06/25 02:43:12;;;;;;;6.40;3.70;;;;;;;14.51;87.04;97027.56;4998252;28;20492;-63
2021/06/25 02:45:38;;;;;;;5.18;3.28;;;;;;;14.60;87.18;97040.22;5006293;28;20048;-64
2021/06/25 02:48:04;;;;;;;8.73;3.65;;;;;;;14.74;86.23;97028.47;5006657;28;20038;-64
2021/06/25 02:50:30;;;;;;;5.53;3.75;;;;;;;14.64;86.91;97032.75;4989774;28;20056;-63
2021/06/25 02:52:55;;;;;;;7.75;3.97;;;;;;;14.66;86.91;97031.19;4983813;28;20038;-62
2021/06/25 02:55:21;;;;;;;6.60;3.58;;;;;;;14.65;87.09;97042.59;4978739;28;20053;-63
2021/06/25 02:57:46;;;;;;;9.77;3.78;;;;;;;14.67;87.68;97046.53;4997824;28;20124;-62
2021/06/25 03:00:15;;;;;;;8.15;3.75;;;;;;;14.75;87.19;97030.84;4996172;28;20046;-63
2021/06/25 03:02:42;;;;;;;7.55;3.65;;;;;;;14.69;87.15;97035.94;5000682;28;20145;-62
2021/06/25 03:05:10;;;;;;;11.25;4.20;;;;;;;14.70;87.37;97025.72;4990095;28;20567;-62
2021/06/25 03:07:36;;;;;;;7.10;3.53;;;;;;;14.68;88.03;97026.09;4976963;28;20058;-63
2021/06/25 03:10:03;;;;;;;6.32;3.65;;;;;;;14.58;88.26;97026.03;4982186;28;20042;-63
2021/06/25 03:12:28;;;;;;;5.90;3.97;;;;;;;14.67;87.97;97020.97;4978618;28;20046;-64
2021/06/25 03:14:54;;;;;;;6.43;4.22;;;;;;;14.67;88.38;97024.50;4981163;28;20643;-65
2021/06/25 03:17:19;;;;;;;8.35;4.03;;;;;;;14.59;88.63;97019.34;4977914;28;20089;-65
2021/06/25 03:19:45;;;;;;;15.60;9.98;;;;;;;14.62;89.05;97033.16;4981910;28;20066;-64
2021/06/25 03:22:10;;;;;;;5.35;3.90;;;;;;;14.60;89.00;97021.69;4977871;28;20507;-64
2021/06/25 03:24:36;;;;;;;6.10;3.85;;;;;;;14.82;88.36;97030.09;4980924;28;20158;-64
2021/06/25 03:27:02;;;;;;;5.07;3.53;;;;;;;14.88;87.86;97028.56;4982285;28;20137;-64
2021/06/25 03:29:28;;;;;;;6.85;4.15;;;;;;;14.82;87.90;97025.38;4982780;28;20503;-64
2021/06/25 03:31:53;;;;;;;5.50;3.88;;;;;;;14.82;87.62;97024.56;4980244;28;20043;-64
2021/06/25 03:34:19;;;;;;;9.00;4.15;;;;;;;14.80;87.72;97033.25;4976081;28;20506;-66
2021/06/25 03:36:44;;;;;;;6.03;3.65;;;;;;;14.84;87.77;97019.47;4981634;28;20038;-63
2021/06/25 03:39:10;;;;;;;4.63;3.17;;;;;;;14.77;88.42;97027.72;4974462;28;20050;-63
2021/06/25 03:41:35;;;;;;;6.80;3.63;;;;;;;14.74;87.93;97025.72;4976178;28;20066;-63
2021/06/25 03:44:01;;;;;;;5.22;3.40;;;;;;;14.70;88.79;97028.47;4977734;28;20093;-63
2021/06/25 03:46:27;;;;;;;5.38;3.90;;;;;;;14.61;89.37;97020.53;4968436;28;20571;-63
2021/06/25 03:48:52;;;;;;;10.73;3.90;;;;;;;14.55;89.43;97022.06;4981368;28;20062;-63
2021/06/25 03:51:19;;;;;;;7.10;4.05;;;;;;;14.64;88.54;97018.97;4976435;28;20092;-63
2021/06/25 03:53:44;;;;;;;6.00;3.95;;;;;;;14.75;88.26;97017.06;4981508;28;20038;-63
2021/06/25 03:56:13;;;;;;;7.28;4.43;;;;;;;14.88;87.17;97018.31;4975509;28;20108;-63
2021/06/25 03:58:41;;;;;;;7.38;4.70;;;;;;;14.74;86.99;97025.72;4981016;28;20199;-64
2021/06/25 04:01:07;;;;;;;10.45;4.65;;;;;;;14.80;87.27;97019.47;4969266;28;20042;-64
2021/06/25 04:03:32;;;;;;;8.88;4.25;;;;;;;14.90;87.13;97026.97;4980111;28;20144;-64
2021/06/25 04:05:58;;;;;;;7.20;4.20;;;;;;;14.77;87.32;97019.44;4979561;28;20043;-67
2021/06/25 04:08:26;;;;;;;6.78;4.40;;;;;;;14.84;87.41;97020.25;4974923;28;20050;-63
2021/06/25 04:10:52;;;;;;;5.93;4.10;;;;;;;14.77;87.77;97022.19;4981608;28;20046;-63
2021/06/25 04:13:17;;;;;;;11.18;5.05;;;;;;;14.69;88.48;97032.38;4975860;28;20076;-63
2021/06/25 04:15:43;;;;;;;6.55;4.28;;;;;;;14.64;88.28;97022.53;4963114;28;20042;-64
2021/06/25 04:18:08;;;;;;;9.60;5.47;;;;;;;14.68;88.68;97025.31;4976167;28;20038;-64
2021/06/25 04:20:34;;;;;;;7.45;4.63;;;;;;;14.69;89.42;97021.34;4980677;28;20053;-63
2021/06/25 04:22:59;;;;;;;11.63;5.35;;;;;;;14.74;89.43;97028.47;4978700;28;20038;-63
2021/06/25 04:25:24;;;;;;;8.52;5.18;;;;;;;14.84;89.31;97025.78;4976837;28;20108;-63
2021/06/25 04:27:50;;;;;;;9.27;4.78;;;;;;;14.92;90.97;97026.59;4980251;28;20046;-64
2021/06/25 04:30:16;;;;;;;7.47;4.65;;;;;;;15.07;90.89;97022.72;4973251;28;20042;-63
2021/06/25 04:32:42;;;;;;;9.38;4.97;;;;;;;15.14;89.92;97023.91;4982789;28;20132;-61
2021/06/25 04:35:09;;;;;;;9.95;5.32;;;;;;;15.06;89.97;97023.91;4976031;28;20522;-61
2021/06/25 04:37:34;;;;;;;8.82;5.43;;;;;;;15.07;91.14;97027.44;4976204;28;20050;-61
2021/06/25 04:40:00;;;;;;;10.40;5.85;;;;;;;15.11;90.79;97025.50;4977722;28;20042;-62
2021/06/25 04:42:25;;;;;;;10.18;5.38;;;;;;;15.10;90.93;97024.69;4977452;28;20050;-62
2021/06/25 04:44:51;;;;;;;8.32;5.28;;;;;;;15.21;90.39;97030.25;4991370;28;20042;-63
2021/06/25 04:47:16;;;;;;;9.63;4.97;;;;;;;15.22;90.56;97029.09;4979053;28;20449;-63
2021/06/25 04:49:42;;;;;;;8.35;4.50;;;;;;;15.24;91.56;97029.47;4980653;28;20533;-62
2021/06/25 04:52:08;;;;;;;7.13;4.93;;;;;;;15.23;91.09;97033.44;4973389;28;20052;-63
2021/06/25 04:54:33;;;;;;;14.30;5.55;;;;;;;15.46;90.04;97035.06;4980866;28;20503;-62
2021/06/25 04:56:59;;;;;;;7.82;5.03;;;;;;;15.33;90.14;97034.63;4990486;28;20133;-63
2021/06/25 04:59:24;;;;;;;10.00;4.55;;;;;;;15.49;89.92;97028.75;4969459;28;20085;-63
2021/06/25 05:01:50;;;;;;;12.45;4.95;;;;;;;15.27;90.47;97022.41;4984723;28;20054;-62
2021/06/25 05:04:15;;;;;;;8.32;4.63;;;;;;;15.26;89.49;97032.63;4973783;28;20051;-62
2021/06/25 05:06:41;;;;;;;10.35;4.70;;;;;;;15.41;89.73;97027.16;4980132;28;20038;-62
2021/06/25 05:09:06;;;;;;;13.43;5.05;;;;;;;15.53;88.79;97031.53;4974721;28;20081;-63
2021/06/25 05:11:32;;;;;;;13.18;5.57;;;;;;;15.49;87.62;97034.28;4961993;28;20122;-62
2021/06/25 05:13:57;;;;;;;13.40;4.60;;;;;;;15.56;87.90;97036.28;4980922;28;20046;-63
2021/06/25 05:16:22;;;;;;;5.47;4.07;;;;;;;15.85;86.54;97037.13;4974505;28;20062;-62
2021/06/25 05:18:48;;;;;;;10.30;5.03;;;;;;;15.74;86.52;97031.59;4963005;28;20388;-65
2021/06/25 05:21:13;;;;;;;11.95;4.68;;;;;;;15.88;84.75;97032.78;4974349;28;20188;-64
2021/06/25 05:23:39;;;;;;;7.63;4.70;;;;;;;15.92;84.89;97030.81;4979401;28;20080;-61
2021/06/25 05:26:04;;;;;;;7.68;4.95;;;;;;;15.88;84.51;97035.53;4959983;28;20042;-63
2021/06/25 05:28:30;;;;;;;8.65;5.13;;;;;;;15.66;84.17;97039.06;4961146;28;20050;-63
2021/06/25 05:30:55;;;;;;;9.20;4.88;;;;;;;15.52;84.37;97033.50;4979038;28;20518;-63
2021/06/25 05:33:21;;;;;;;8.48;4.60;;;;;;;15.58;85.38;97031.94;4975562;28;20812;-63
2021/06/25 05:35:48;;;;;;;7.57;5.05;;;;;;;15.67;84.28;97037.06;4975014;28;20110;-63
2021/06/25 05:38:14;;;;;;;8.73;5.45;;;;;;;15.71;85.21;97034.31;4970995;28;20114;-64
2021/06/25 05:40:41;;;;;;;11.10;5.10;;;;;;;16.00;82.86;97046.22;4980301;28;20050;-64
2021/06/25 05:43:07;;;;;;;8.32;5.25;;;;;;;15.99;83.31;97037.16;4974437;28;20050;-64
2021/06/25 05:45:34;;;;;;;8.80;5.22;;;;;;;15.85;82.72;97045.41;4977545;28;20434;-64
2021/06/25 05:48:01;;;;;;;11.00;5.38;;;;;;;15.93;82.77;97040.69;4982413;28;20109;-64
2021/06/25 05:50:26;;;;;;;12.70;5.85;;;;;;;16.03;81.82;97034.38;4972991;28;20399;-64
2021/06/25 05:52:52;;;;;;;14.45;8.32;;;;;;;16.12;81.53;97040.31;4981986;28;20053;-62
2021/06/25 05:55:18;;;;;;;9.18;4.63;;;;;;;16.38;80.59;97049.34;4977569;28;20113;-63
2021/06/25 05:57:45;;;;;;;13.00;5.72;;;;;;;16.38;79.69;97039.09;4982175;28;20065;-62
2021/06/25 06:00:12;;;;;;;9.38;5.45;;;;;;;16.17;80.46;97039.09;4979459;28;20065;-63
2021/06/25 06:02:37;;;;;;;8.57;5.07;;;;;;;16.26;80.97;97039.50;4975534;28;20122;-64
2021/06/25 06:05:04;;;;;;;10.45;5.43;;;;;;;16.24;80.78;97037.13;4982051;28;20598;-63
2021/06/25 06:07:29;;;;;;;9.63;5.90;;;;;;;16.31;80.20;97033.56;4966353;28;20058;-63
2021/06/25 06:09:55;;;;;;;7.57;5.07;;;;;;;16.39;79.01;97029.63;4986098;28;20206;-63
2021/06/25 06:12:21;;;;;;;10.75;5.03;;;;;;;16.31;79.25;97033.56;4981337;28;20038;-63
2021/06/25 06:14:47;;;;;;;8.20;4.60;;;;;;;16.38;79.35;97036.31;4979681;28;20061;-62
2021/06/25 06:17:12;;;;;;;7.80;5.53;;;;;;;16.26;79.46;97028.47;4969347;28;20042;-62
2021/06/25 06:19:43;;;;;;;8.10;5.38;;;;;;;16.32;79.56;97031.59;4982650;28;20054;-63
2021/06/25 06:33:14;;;;;;;9.82;6.35;;;;;;;16.09;80.19;97035.56;4972603;28;20411;-62
2021/06/25 06:35:40;;;;;;;12.90;6.35;;;;;;;16.23;80.08;97034.78;4981947;28;20729;-62
2021/06/25 06:38:06;;;;;;;10.20;5.93;;;;;;;16.46;78.40;97033.53;4977551;28;20050;-62
2021/06/25 06:40:32;;;;;;;11.98;6.20;;;;;;;16.49;79.13;97041.84;4983259;28;20053;-63
2021/06/25 06:42:57;;;;;;;9.38;5.85;;;;;;;16.30;78.73;97034.75;4975311;28;20475;-62
2021/06/25 06:45:23;;;;;;;9.07;5.47;;;;;;;16.41;78.71;97041.06;4978171;28;20489;-63
2021/06/25 06:47:48;;;;;;;9.02;5.53;;;;;;;16.54;78.38;97037.88;4971703;28;20031;-62
2021/06/25 06:50:14;;;;;;;9.48;6.18;;;;;;;16.50;78.19;97043.44;4977935;28;20414;-63
2021/06/25 06:52:45;;;;;;;12.23;6.68;;;;;;;16.51;77.46;97044.19;4982071;28;20042;-63
2021/06/25 06:55:16;;;;;;;12.32;6.10;;;;;;;16.57;77.33;97042.63;4959971;28;20090;-63
2021/06/25 06:57:42;;;;;;;7.82;5.45;;;;;;;16.89;76.40;97045.34;4977349;28;20050;-63
2021/06/25 07:00:08;;;;;;;9.52;6.88;;;;;;;16.81;75.07;97040.97;4977979;28;20100;-63
2021/06/25 07:02:37;;;;;;;9.27;5.78;;;;;;;17.18;74.56;97040.50;4980369;28;20042;-62
2021/06/25 07:05:02;;;;;;;8.80;6.18;;;;;;;17.26;74.36;97046.78;4962055;28;20050;-63
2021/06/25 07:07:28;;;;;;;7.70;5.38;;;;;;;17.71;72.59;97046.94;4971749;28;20053;-63
2021/06/25 07:09:53;;;;;;;7.03;4.72;;;;;;;18.07;70.89;97043.94;4995461;28;20035;-63
2021/06/25 07:12:19;;;;;;;7.68;4.80;;;;;;;18.26;71.07;97045.38;4983818;28;20046;-63
2021/06/25 07:14:44;;;;;;;6.10;4.28;;;;;;;18.90;68.84;97045.97;4979196;28;20492;-63
2021/06/25 07:17:09;;;;;;;7.38;4.72;;;;;;;19.57;65.09;97037.19;4972962;28;20064;-63
2021/06/25 07:19:35;;;;;;;10.20;4.80;;;;;;;20.22;63.05;97037.03;4981179;28;20403;-62
2021/06/25 07:22:00;;;;;;;8.05;4.65;;;;;;;20.73;60.91;97034.22;4982893;28;20046;-62
2021/06/25 07:24:26;;;;;;;8.25;4.45;;;;;;;22.01;56.73;97034.75;4962689;28;20047;-63
2021/06/25 07:26:51;;;;;;;6.88;3.90;;;;;;;22.23;55.16;97032.22;4972655;28;20101;-63
2021/06/25 07:29:16;;;;;;;5.25;4.20;;;;;;;21.33;57.91;97039.78;4977874;28;20046;-63
2021/06/25 07:31:42;;;;;;;5.65;3.70;;;;;;;21.07;58.80;97039.53;4981967;28;20609;-64
2021/06/25 07:34:07;;;;;;;6.55;3.90;;;;;;;21.14;57.65;97035.78;4976533;28;20112;-63
2021/06/25 07:36:33;;;;;;;8.13;4.53;;;;;;;21.20;57.32;97034.88;4981653;28;20046;-63
2021/06/25 07:38:58;;;;;;;9.48;4.40;;;;;;;20.94;58.16;97038.56;4982389;28;20046;-65
2021/06/25 07:41:24;;;;;;;6.85;3.80;;;;;;;20.72;58.97;97032.63;4977436;28;20137;-63
2021/06/25 07:43:49;;;;;;;6.45;3.80;;;;;;;20.88;58.36;97029.16;4981565;28;20046;-63
2021/06/25 07:46:15;;;;;;;7.72;3.55;;;;;;;21.20;57.92;97026.50;4970099;28;20045;-63
2021/06/25 07:48:40;;;;;;;5.97;4.10;;;;;;;20.79;57.62;97027.72;4980926;28;20129;-63
2021/06/25 07:51:06;;;;;;;5.75;3.47;;;;;;;20.47;59.63;97024.72;4977376;28;20402;-62
2021/06/25 07:53:31;;;;;;;6.68;3.42;;;;;;;21.19;57.21;97024.97;4981991;28;20046;-63
2021/06/25 07:55:57;;;;;;;7.78;3.53;;;;;;;21.22;56.65;97028.88;4981031;28;20042;-65
2021/06/25 07:58:22;;;;;;;5.35;3.22;;;;;;;22.14;54.88;97022.44;4977608;28;20791;-64
2021/06/25 08:00:49;;;;;;;5.15;2.90;;;;;;;22.43;52.96;97024.53;4977725;28;20031;-64
2021/06/25 08:03:14;;;;;;;6.22;3.03;;;;;;;21.82;53.74;97016.84;4982244;28;20042;-64
2021/06/25 08:05:40;;;;;;;5.22;3.13;;;;;;;22.01;54.60;97023.59;4983276;28;20042;-65
2021/06/25 08:08:06;;;;;;;4.13;3.20;;;;;;;22.80;51.96;97018.81;4976465;28;20485;-64
2021/06/25 08:10:33;;;;;;;6.00;3.17;;;;;;;21.87;54.86;97027.50;4982171;28;20048;-67
2021/06/25 08:12:59;;;;;;;4.60;2.70;;;;;;;22.00;54.12;97020.00;4966691;28;20494;-64
2021/06/25 08:15:24;;;;;;;4.55;2.80;;;;;;;21.92;54.52;97013.81;4976581;28;20088;-65
2021/06/25 08:17:50;;;;;;;4.82;3.10;;;;;;;21.65;54.95;97016.06;4980181;28;20093;-64
2021/06/25 08:20:15;;;;;;;4.05;2.80;;;;;;;21.91;54.16;97019.81;4977492;28;20049;-64
2021/06/25 08:22:41;;;;;;;7.82;3.10;;;;;;;21.37;55.91;97013.44;4979904;28;20511;-64
2021/06/25 08:25:06;;;;;;;8.43;3.45;;;;;;;21.79;55.13;97009.34;4973314;28;20038;-64
2021/06/25 08:27:32;;;;;;;5.88;2.85;;;;;;;21.79;54.61;97015.72;4981048;28;20511;-63
2021/06/25 08:29:57;;;;;;;3.38;2.40;;;;;;;21.84;53.58;97012.44;4981681;28;20104;-64
2021/06/25 08:32:23;;;;;;;10.63;2.60;;;;;;;21.98;53.47;97008.50;4976035;28;20537;-64
2021/06/25 08:34:49;;;;;;;3.38;2.30;;;;;;;22.90;52.23;97003.75;4982483;28;20391;-64
2021/06/25 08:37:14;;;;;;;5.50;2.97;;;;;;;22.97;51.41;96997.97;4976318;28;20100;-64
2021/06/25 08:39:39;;;;;;;4.50;2.97;;;;;;;23.93;49.87;97003.97;4980674;28;20045;-64
2021/06/25 08:42:06;;;;;;;4.85;2.42;;;;;;;23.52;50.27;96994.44;4972013;28;20074;-64
2021/06/25 08:44:37;;;;;;;9.82;2.85;;;;;;;23.96;49.53;96992.66;4980427;28;20058;-64
2021/06/25 08:47:04;;;;;;;7.38;3.35;;;;;;;23.24;50.84;96991.25;4974285;28;20038;-63
2021/06/25 08:49:29;;;;;;;5.50;2.72;;;;;;;22.91;50.50;97002.56;4979939;28;20051;-64
2021/06/25 08:51:55;;;;;;;2.88;2.08;;;;;;;22.70;51.51;97004.69;4982391;28;20050;-64
2021/06/25 08:54:21;;;;;;;6.63;2.83;;;;;;;22.17;52.46;97004.06;4975639;28;20064;-65
2021/06/25 08:56:46;;;;;;;4.18;2.00;;;;;;;22.56;51.97;96996.69;4978456;28;20495;-62
2021/06/25 08:59:18;;;;;;;3.08;2.17;;;;;;;22.99;50.46;96997.53;4961915;28;20111;-63
2021/06/25 09:01:45;;;;;;;4.35;2.30;;;;;;;23.19;48.69;96992.59;4978046;28;20050;-65
2021/06/25 09:04:32;;;;;;;4.30;2.10;;;;;;;23.22;49.66;96986.13;4974177;28;20046;-64
2021/06/25 09:06:58;;;;;;;5.30;2.20;;;;;;;22.94;51.12;97003.66;4979856;28;20046;-64
2021/06/25 09:09:36;;;;;;;4.15;2.33;;;;;;;22.47;51.44;96994.56;4952940;28;20069;-64
2021/06/25 09:12:28;;;;;;;2.60;1.98;;;;;;;22.45;52.40;97004.56;4970950;28;20121;-65
2021/06/25 09:15:13;;;;;;;3.35;1.83;;;;;;;21.81;52.77;97002.13;4978547;28;20042;-63
2021/06/25 09:18:03;;;;;;;3.15;1.60;;;;;;;22.32;50.71;96991.34;4979045;28;20046;-65
2021/06/25 09:20:41;;;;;;;4.65;2.15;;;;;;;23.06;49.59;96989.75;4975302;28;20046;-63
2021/06/25 09:23:11;;;;;;;2.13;1.58;;;;;;;22.82;50.86;96991.25;4969700;28;20521;-63
2021/06/25 09:25:54;;;;;;;3.78;1.55;;;;;;;22.60;50.66;96985.44;4979305;28;20061;-65
2021/06/25 09:28:29;;;;;;;3.03;1.77;;;;;;;21.67;52.48;96994.09;4978815;28;20488;-63
2021/06/25 09:30:55;;;;;;;2.38;1.70;;;;;;;22.17;51.44;96992.13;4985591;28;20050;-63
2021/06/25 09:33:22;;;;;;;3.10;1.65;;;;;;;22.73;50.80;96983.50;4960264;28;22127;-63
2021/06/25 09:35:56;;;;;;;3.00;1.52;;;;;;;22.86;48.74;96984.31;4980868;28;20038;-64
2021/06/25 09:38:37;;;;;;;2.67;1.20;;;;;;;23.80;45.54;96978.81;4957698;28;21043;-64
2021/06/25 09:41:16;;;;;;;1.95;1.25;;;;;;;23.73;44.95;96979.78;4974892;28;20407;-64
2021/06/25 09:43:52;;;;;;;2.07;1.50;;;;;;;24.20;44.00;96981.91;4963348;28;20100;-63
2021/06/25 09:46:34;;;;;;;2.58;1.40;;;;;;;23.52;45.02;96978.44;4959305;28;20046;-64
2021/06/25 09:49:08;;;;;;;3.10;1.30;;;;;;;23.79;46.63;96986.38;4980259;28;20043;-64
2021/06/25 09:51:35;;;;;;;2.85;1.48;;;;;;;23.28;47.36;96975.16;4979146;28;20042;-64
2021/06/25 09:54:02;;;;;;;3.22;1.50;;;;;;;23.13;47.85;96986.00;4965271;28;20042;-64
2021/06/25 09:56:27;;;;;;;5.35;1.67;;;;;;;23.00;48.63;96990.75;4976572;28;20046;-64
2021/06/25 09:59:24;;;;;;;2.38;1.65;;;;;;;23.34;48.22;96983.81;4981728;28;20053;-63
2021/06/25 10:01:50;;;;;;;3.63;1.77;;;;;;;22.56;48.49;96985.53;4982311;28;20108;-64
2021/06/25 10:04:15;;;;;;;2.00;1.30;;;;;;;22.77;46.97;96986.19;4974665;28;20610;-65
2021/06/25 10:06:41;;;;;;;3.15;1.80;;;;;;;22.89;48.33;96986.22;4980209;28;20061;-64
2021/06/25 10:09:07;;;;;;;3.53;1.90;;;;;;;23.36;47.86;96984.13;4971553;28;20050;-65
2021/06/25 10:11:33;;;;;;;2.55;1.75;;;;;;;23.45;47.59;96981.47;4980492;28;20077;-64
2021/06/25 10:14:02;;;;;;;3.20;1.65;;;;;;;24.13;44.18;96976.53;4970866;28;20039;-64
2021/06/25 10:16:28;;;;;;;3.47;1.73;;;;;;;24.61;44.60;96987.72;4975771;28;20042;-65
2021/06/25 10:18:57;;;;;;;3.03;1.55;;;;;;;24.52;44.18;96970.81;4980323;28;20491;-64
2021/06/25 10:21:28;;;;;;;2.03;1.33;;;;;;;25.05;42.80;96973.75;4975327;28;20468;-64
2021/06/25 10:23:56;;;;;;;1.65;1.08;;;;;;;24.30;42.39;96965.19;4979148;28;20042;-64
2021/06/25 10:26:24;;;;;;;1.52;1.15;;;;;;;24.65;42.73;96971.59;4969207;28;20050;-63
2021/06/25 10:28:51;;;;;;;3.83;1.33;;;;;;;24.00;43.63;96967.38;4962270;28;20054;-63
2021/06/25 10:31:22;;;;;;;2.55;1.70;;;;;;;24.27;43.65;96964.06;4971578;28;20407;-63
2021/06/25 10:33:49;;;;;;;1.80;1.30;;;;;;;23.78;44.37;96962.44;4983355;28;20093;-64
2021/06/25 10:36:18;;;;;;;1.70;1.23;;;;;;;24.09;45.42;96959.06;4979632;28;20111;-64
2021/06/25 10:38:46;;;;;;;2.08;1.27;;;;;;;24.15;44.30;96967.69;4985459;28;20125;-64
2021/06/25 10:41:14;;;;;;;5.20;1.60;;;;;;;24.04;43.85;96965.25;4976594;28;20077;-65
2021/06/25 10:43:41;;;;;;;6.07;1.92;;;;;;;23.84;44.57;96971.88;4969218;28;20038;-65
2021/06/25 10:46:32;;;;;;;2.67;1.58;;;;;;;23.97;47.08;96971.09;4975208;28;20049;-64
2021/06/25 10:49:08;;;;;;;2.33;1.75;;;;;;;23.87;47.66;96969.41;4983369;28;20050;-65
2021/06/25 10:51:36;;;;;;;2.78;1.80;;;;;;;23.63;47.75;96970.50;4981650;28;20049;-63
2021/06/25 10:54:11;;;;;;;3.03;1.73;;;;;;;23.02;49.21;96963.91;4981213;28;20049;-64
2021/06/25 10:56:43;;;;;;;3.50;1.67;;;;;;;22.57;50.21;96967.56;4980987;28;20057;-63
2021/06/25 10:59:30;;;;;;;3.00;1.65;;;;;;;22.75;50.07;96969.09;4959235;28;20078;-64
2021/06/25 11:02:01;;;;;;;2.92;1.95;;;;;;;22.56;50.30;96974.38;4983219;28;20038;-63
2021/06/25 11:04:47;;;;;;;7.18;3.75;;;;;;;22.72;51.00;96973.53;4960719;28;20077;-63
2021/06/25 11:07:18;;;;;;;3.15;1.80;;;;;;;23.11;50.14;96968.88;4973316;28;20372;-63
2021/06/25 11:09:56;;;;;;;3.25;1.85;;;;;;;23.60;49.04;96962.22;4982633;28;20038;-64
2021/06/25 11:12:29;;;;;;;2.70;1.90;;;;;;;23.89;49.07;96961.34;4977412;28;20182;-63
2021/06/25 11:15:16;;;;;;;3.50;1.85;;;;;;;23.79;48.99;96964.00;4982774;28;20046;-64
2021/06/25 11:17:47;;;;;;;3.08;1.70;;;;;;;23.87;47.96;96961.03;4977869;28;20053;-63
2021/06/25 11:20:47;;;;;;;2.60;1.90;;;;;;;24.01;47.72;96958.53;4959964;28;20069;-63
2021/06/25 11:23:19;;;;;;;3.17;1.80;;;;;;;23.48;49.56;96964.59;4978012;28;20045;-63
2021/06/25 11:25:52;;;;;;;4.40;1.90;;;;;;;24.15;47.01;96956.50;4981948;28;20046;-63
2021/06/25 11:28:25;;;;;;;2.55;1.65;;;;;;;24.11;46.80;96948.22;4960746;28;20035;-64
2021/06/25 11:30:51;;;;;;;2.83;1.92;;;;;;;23.94;45.49;96955.19;4984031;28;20430;-64
2021/06/25 11:33:28;;;;;;;4.35;2.22;;;;;;;23.44;47.75;96952.75;4976855;28;20053;-64
2021/06/25 11:35:56;;;;;;;2.97;1.70;;;;;;;23.49;47.50;96945.78;4987549;28;20050;-64
2021/06/25 11:38:59;;;;;;;4.93;1.75;;;;;;;23.26;47.26;96952.47;4993860;28;20168;-65
2021/06/25 11:41:33;;;;;;;4.15;1.75;;;;;;;23.65;46.95;96948.47;4955181;28;20145;-64
2021/06/25 11:44:00;;;;;;;3.15;2.05;;;;;;;24.04;45.56;96949.25;4981320;28;20122;-65
2021/06/25 11:46:26;;;;;;;4.55;2.63;;;;;;;24.18;44.46;96950.78;4973193;28;20056;-65